createdAt,value
2018-10-21T00:00:18.527Z,7.50
2018-10-21T00:02:47.760Z,7.93
2018-10-21T00:05:18.065Z,7.63
2018-10-21T00:07:47.287Z,7.17
2018-10-21T00:10:17.702Z,7.53
2018-10-21T00:12:46.927Z,7.53
2018-10-21T00:15:16.853Z,7.83
2018-10-21T00:17:46.158Z,7.17
2018-10-21T00:20:16.234Z,7.07
2018-10-21T00:22:45.447Z,8.23
2018-10-21T00:25:15.691Z,7.55
2018-10-21T00:27:44.891Z,7.77
2018-10-21T00:30:14.457Z,8.45
2018-10-21T00:32:50.593Z,9.20
2018-10-21T00:35:20.052Z,8.68
2018-10-21T00:37:49.269Z,9.07
2018-10-21T00:40:20.698Z,9.40
2018-10-21T00:42:49.894Z,8.30
2018-10-21T00:45:19.191Z,9.50
2018-10-21T00:47:48.426Z,8.37
2018-10-21T00:50:18.741Z,8.83
2018-10-21T00:52:47.967Z,8.25
2018-10-21T00:55:17.882Z,8.97
2018-10-21T00:57:47.133Z,7.67
2018-10-21T01:00:17.282Z,8.33
2018-10-21T01:02:46.608Z,9.40
2018-10-21T01:05:17.068Z,9.60
2018-10-21T01:07:46.284Z,9.43
2018-10-21T01:10:17.096Z,9.57
2018-10-21T01:12:46.308Z,9.70
2018-10-21T01:15:16.578Z,9.40
2018-10-21T01:17:45.792Z,9.57
2018-10-21T01:20:16.584Z,8.30
2018-10-21T01:22:45.944Z,9.08
2018-10-21T01:25:15.904Z,8.90
2018-10-21T01:27:45.097Z,8.90
2018-10-21T01:30:14.673Z,8.65
2018-10-21T01:32:43.857Z,8.10
2018-10-21T01:35:13.186Z,9.20
2018-10-21T01:37:42.459Z,9.20
2018-10-21T01:40:38.162Z,8.80
2018-10-21T01:43:08.453Z,8.88
2018-10-21T01:45:37.682Z,8.37
2018-10-21T01:48:08.145Z,8.50
2018-10-21T01:50:37.410Z,8.27
2018-10-21T01:53:07.797Z,9.27
2018-10-21T01:55:37.870Z,8.33
2018-10-21T01:58:07.169Z,9.20
2018-10-21T02:00:36.666Z,8.50
2018-10-21T02:03:06.742Z,8.98
2018-10-21T02:05:36.256Z,8.70
2018-10-21T02:08:05.640Z,8.77
2018-10-21T02:10:35.023Z,8.20
2018-10-21T02:13:04.319Z,7.93
2018-10-21T02:15:33.573Z,10.43
2018-10-21T02:18:02.923Z,10.60
2018-10-21T02:20:32.160Z,8.63
2018-10-21T02:23:01.396Z,8.00
2018-10-21T02:25:30.725Z,9.60
2018-10-21T02:27:59.952Z,9.20
2018-10-21T02:30:30.115Z,8.63
2018-10-21T02:33:00.132Z,7.83
2018-10-21T02:35:29.348Z,7.63
2018-10-21T02:37:58.831Z,8.23
2018-10-21T02:41:38.870Z,8.23
2018-10-21T02:44:13.397Z,9.20
2018-10-21T02:46:43.270Z,10.63
2018-10-21T02:49:13.476Z,8.80
2018-10-21T02:51:42.740Z,9.50
2018-10-21T02:54:12.108Z,8.88
2018-10-21T02:56:41.341Z,8.30
2018-10-21T02:59:10.543Z,9.90
2018-10-21T03:01:39.802Z,8.47
2018-10-21T03:04:09.052Z,8.85
2018-10-21T03:06:38.420Z,10.00
2018-10-21T03:09:08.344Z,10.30
2018-10-21T03:11:37.595Z,9.53
2018-10-21T03:14:06.883Z,9.70
2018-10-21T03:16:36.123Z,9.23
2018-10-21T03:19:05.424Z,10.20
2018-10-21T03:21:34.686Z,10.47
2018-10-21T03:24:03.992Z,10.20
2018-10-21T03:26:33.232Z,8.93
2018-10-21T03:29:02.452Z,9.40
2018-10-21T03:31:31.709Z,10.00
2018-10-21T03:34:01.070Z,10.23
2018-10-21T03:36:30.206Z,9.40
2018-10-21T03:38:59.430Z,9.93
2018-10-21T03:41:28.692Z,9.63
2018-10-21T03:43:57.954Z,10.10
2018-10-21T03:46:27.197Z,10.43
2018-10-21T03:48:56.429Z,10.63
2018-10-21T03:51:25.781Z,10.10
2018-10-21T03:53:55.013Z,10.80
2018-10-21T03:56:24.228Z,9.90
2018-10-21T03:58:53.501Z,10.13
2018-10-21T04:01:22.807Z,10.30
2018-10-21T04:03:52.822Z,10.55
2018-10-21T04:06:22.080Z,9.37
2018-10-21T04:08:51.262Z,10.30
2018-10-21T04:11:20.807Z,9.87
2018-10-21T04:13:50.056Z,12.67
2018-10-21T04:16:19.305Z,11.00
2018-10-21T04:18:48.494Z,10.13
2018-10-21T04:21:17.998Z,10.53
2018-10-21T04:23:47.232Z,10.50
2018-10-21T04:26:16.992Z,11.00
2018-10-21T04:28:46.233Z,10.03
2018-10-21T04:31:15.729Z,10.88
2018-10-21T04:33:45.815Z,11.83
2018-10-21T04:36:17.335Z,10.10
2018-10-21T04:40:02.018Z,10.47
2018-10-21T04:42:31.342Z,10.57
2018-10-21T04:45:01.067Z,9.73
2018-10-21T04:47:30.594Z,12.07
2018-10-21T04:49:59.870Z,10.60
2018-10-21T04:52:30.168Z,11.33
2018-10-21T04:55:04.710Z,12.70
2018-10-21T04:57:34.108Z,12.27
2018-10-21T05:00:03.615Z,14.40
2018-10-21T05:02:32.818Z,13.37
2018-10-21T05:05:02.081Z,11.90
2018-10-21T05:07:31.337Z,12.90
2018-10-21T05:10:00.632Z,13.47
2018-10-21T05:12:29.827Z,12.87
2018-10-21T05:14:59.044Z,13.57
2018-10-21T05:17:28.270Z,12.70
2018-10-21T05:19:57.483Z,12.87
2018-10-21T05:22:26.750Z,13.70
2018-10-21T05:24:56.014Z,13.50
2018-10-21T05:27:25.291Z,14.23
2018-10-21T05:29:54.519Z,13.17
2018-10-21T05:32:23.707Z,13.43
2018-10-21T05:34:52.963Z,13.30
2018-10-21T05:37:22.140Z,13.40
2018-10-21T05:39:51.375Z,14.07
2018-10-21T05:42:20.592Z,12.82
2018-10-21T05:44:49.806Z,12.60
2018-10-21T05:47:19.098Z,12.87
2018-10-21T05:49:48.334Z,12.87
2018-10-21T05:52:17.617Z,12.07
2018-10-21T05:54:46.765Z,11.67
2018-10-21T05:57:16.011Z,12.80
2018-10-21T05:59:45.219Z,13.60
2018-10-21T06:02:14.494Z,12.87
2018-10-21T06:04:43.689Z,12.27
2018-10-21T06:07:12.985Z,12.53
2018-10-21T06:09:42.224Z,13.57
2018-10-21T06:12:11.436Z,14.23
2018-10-21T06:14:40.659Z,13.00
2018-10-21T06:17:14.121Z,13.93
2018-10-21T06:19:46.135Z,13.50
2018-10-21T06:22:15.467Z,13.50
2018-10-21T06:24:44.579Z,13.40
2018-10-21T06:27:13.815Z,13.63
2018-10-21T06:29:43.012Z,15.33
2018-10-21T06:32:12.424Z,13.80
2018-10-21T06:34:41.647Z,14.60
2018-10-21T06:37:11.094Z,14.00
2018-10-21T06:39:40.366Z,11.70
2018-10-21T06:42:10.256Z,13.60
2018-10-21T06:44:39.452Z,12.77
2018-10-21T06:47:09.592Z,11.25
2018-10-21T06:49:38.805Z,12.97
2018-10-21T06:52:08.332Z,13.00
2018-10-21T06:54:37.542Z,12.87
2018-10-21T06:57:07.039Z,11.80
2018-10-21T06:59:36.137Z,13.07
2018-10-21T07:02:05.650Z,11.77
2018-10-21T07:04:34.881Z,12.00
2018-10-21T07:07:04.223Z,11.80
2018-10-21T07:09:33.439Z,11.60
2018-10-21T07:12:02.714Z,12.00
2018-10-21T07:14:31.965Z,12.05
2018-10-21T07:17:01.168Z,13.03
2018-10-21T07:19:30.502Z,12.37
2018-10-21T07:21:59.786Z,12.20
2018-10-21T07:24:29.005Z,11.70
2018-10-21T07:26:58.214Z,10.63
2018-10-21T07:29:27.509Z,11.23
2018-10-21T07:31:56.729Z,11.27
2018-10-21T07:34:25.956Z,11.53
2018-10-21T07:36:55.224Z,10.30
2018-10-21T07:39:24.428Z,11.10
2018-10-21T07:41:54.375Z,11.33
2018-10-21T07:44:23.660Z,11.70
2018-10-21T07:46:53.247Z,11.93
2018-10-21T07:49:22.470Z,9.90
2018-10-21T07:51:51.708Z,11.03
2018-10-21T07:54:21.911Z,10.73
2018-10-21T07:56:51.135Z,10.47
2018-10-21T07:59:20.384Z,10.90
2018-10-21T08:01:49.777Z,10.77
2018-10-21T08:04:19.000Z,10.57
2018-10-21T08:06:59.408Z,11.70
2018-10-21T08:09:28.657Z,11.10
2018-10-21T08:11:57.886Z,11.13
2018-10-21T08:14:27.196Z,11.20
2018-10-21T08:16:56.420Z,10.53
2018-10-21T08:19:25.718Z,11.00
2018-10-21T08:21:54.987Z,11.50
2018-10-21T08:24:24.150Z,12.10
2018-10-21T08:26:53.345Z,10.57
2018-10-21T08:29:22.550Z,11.90
2018-10-21T08:31:51.747Z,10.43
2018-10-21T08:34:21.027Z,11.53
2018-10-21T08:36:50.224Z,11.90
2018-10-21T08:39:19.430Z,11.80
2018-10-21T08:41:48.649Z,12.60
2018-10-21T08:44:17.906Z,10.03
2018-10-21T08:46:47.244Z,12.17
2018-10-21T08:49:16.619Z,12.53
2018-10-21T08:51:45.761Z,12.20
2018-10-21T08:54:14.997Z,11.03
2018-10-21T08:56:44.211Z,12.67
2018-10-21T08:59:13.431Z,10.70
2018-10-21T09:01:42.759Z,10.90
2018-10-21T09:04:12.107Z,9.83
2018-10-21T09:06:41.346Z,11.10
2018-10-21T09:09:11.862Z,11.40
2018-10-21T09:11:41.437Z,10.10
2018-10-21T09:14:11.152Z,9.77
2018-10-21T09:16:40.455Z,9.53
2018-10-21T09:19:10.325Z,9.60
2018-10-21T09:21:39.809Z,10.30
2018-10-21T09:24:09.380Z,9.80
2018-10-21T09:26:38.905Z,9.53
2018-10-21T09:29:08.903Z,9.70
2018-10-21T09:31:38.125Z,9.57
2018-10-21T09:34:08.329Z,8.95
2018-10-21T09:36:37.609Z,8.63
2018-10-21T09:39:11.436Z,10.17
2018-10-21T09:41:40.699Z,9.53
2018-10-21T09:44:10.901Z,8.40
2018-10-21T09:46:40.874Z,9.30
2018-10-21T09:49:11.174Z,8.27
2018-10-21T09:51:40.342Z,9.33
2018-10-21T09:54:10.347Z,8.40
2018-10-21T09:56:39.551Z,7.70
2018-10-21T09:59:09.438Z,7.80
2018-10-21T10:01:45.139Z,8.30
2018-10-21T10:04:15.630Z,7.30
2018-10-21T10:06:45.731Z,8.40
2018-10-21T10:09:16.265Z,7.60
2018-10-21T10:11:46.542Z,8.90
2018-10-21T10:14:17.561Z,6.87
2018-10-21T10:16:47.134Z,7.93
2018-10-21T10:19:17.364Z,7.08
2018-10-21T10:21:46.509Z,5.87
2018-10-21T10:24:15.731Z,7.40
2018-10-21T10:26:45.009Z,6.47
2018-10-21T10:29:14.319Z,6.35
2018-10-21T10:31:43.485Z,6.20
2018-10-21T10:34:12.742Z,5.53
2018-10-21T10:36:41.921Z,4.93
2018-10-21T10:39:11.766Z,5.60
2018-10-21T10:41:41.792Z,5.77
2018-10-21T10:44:11.143Z,6.10
2018-10-21T10:46:40.385Z,7.47
2018-10-21T10:49:09.970Z,5.73
2018-10-21T10:51:39.197Z,6.67
2018-10-21T10:54:09.001Z,5.77
2018-10-21T10:56:38.292Z,5.40
2018-10-21T10:59:07.726Z,5.30
2018-10-21T11:01:36.953Z,4.80
2018-10-21T11:04:06.267Z,5.03
2018-10-21T11:06:35.482Z,4.67
2018-10-21T11:09:07.732Z,5.60
2018-10-21T11:11:36.937Z,5.20
2018-10-21T11:14:06.218Z,4.53
2018-10-21T11:16:35.540Z,4.53
2018-10-21T11:19:04.885Z,5.20
2018-10-21T11:21:34.108Z,5.73
2018-10-21T11:24:03.363Z,5.30
2018-10-21T11:26:32.601Z,4.40
2018-10-21T11:29:01.925Z,4.50
2018-10-21T11:31:31.309Z,3.83
2018-10-21T11:34:00.549Z,5.23
2018-10-21T11:36:30.050Z,4.05
2018-10-21T11:38:59.258Z,4.87
2018-10-21T11:41:28.494Z,4.27
2018-10-21T11:43:57.715Z,5.07
2018-10-21T11:46:27.326Z,4.70
2018-10-21T11:48:57.097Z,4.60
2018-10-21T11:51:26.549Z,4.80
2018-10-21T11:53:56.071Z,4.90
2018-10-21T11:56:26.425Z,4.87
2018-10-21T11:58:56.035Z,4.90
2018-10-21T12:01:25.444Z,4.83
2018-10-21T12:03:54.848Z,4.70
2018-10-21T12:06:24.528Z,5.70
2018-10-21T12:08:54.197Z,4.67
2018-10-21T12:11:23.799Z,5.17
2018-10-21T12:13:53.074Z,6.10
2018-10-21T12:16:22.340Z,4.47
2018-10-21T12:18:51.638Z,4.43
2018-10-21T12:21:20.898Z,3.83
2018-10-21T12:23:50.356Z,6.00
2018-10-21T12:26:19.695Z,4.93
2018-10-21T12:28:48.907Z,4.80
2018-10-21T12:31:19.714Z,4.17
2018-10-21T12:33:48.976Z,4.60
2018-10-21T12:36:18.192Z,5.10
2018-10-21T12:38:47.391Z,5.03
2018-10-21T12:41:16.666Z,5.07
2018-10-21T12:43:45.919Z,5.20
2018-10-21T12:46:15.205Z,4.97
2018-10-21T12:48:44.472Z,5.23
2018-10-21T12:51:13.699Z,4.10
2018-10-21T12:53:42.883Z,4.50
2018-10-21T12:56:12.108Z,4.17
2018-10-21T12:58:41.447Z,4.93
2018-10-21T13:01:11.493Z,4.80
2018-10-21T13:03:40.603Z,4.60
2018-10-21T13:06:10.257Z,4.93
2018-10-21T13:08:39.471Z,4.03
2018-10-21T13:11:09.267Z,3.90
2018-10-21T13:13:38.695Z,4.27
2018-10-21T13:16:08.472Z,3.60
2018-10-21T13:18:37.683Z,3.50
2018-10-21T13:21:07.250Z,4.43
2018-10-21T13:23:37.053Z,4.40
2018-10-21T13:26:06.299Z,3.57
2018-10-21T13:29:01.856Z,4.28
2018-10-21T13:31:31.021Z,4.20
2018-10-21T13:34:00.218Z,4.03
2018-10-21T13:36:29.431Z,4.00
2018-10-21T13:38:58.751Z,3.73
2018-10-21T13:41:28.139Z,4.30
2018-10-21T13:43:57.335Z,3.73
2018-10-21T13:46:26.674Z,4.20
2018-10-21T13:48:55.867Z,3.70
2018-10-21T13:51:25.325Z,4.55
2018-10-21T13:53:54.468Z,4.20
2018-10-21T13:56:23.775Z,4.20
2018-10-21T13:58:53.011Z,3.20
2018-10-21T14:01:22.348Z,4.70
2018-10-21T14:03:51.595Z,3.90
2018-10-21T14:06:20.843Z,4.08
2018-10-21T14:08:50.086Z,3.93
2018-10-21T14:11:19.317Z,3.87
2018-10-21T14:13:48.519Z,3.90
2018-10-21T14:16:17.828Z,3.13
2018-10-21T14:18:47.033Z,4.30
2018-10-21T14:21:16.303Z,3.80
2018-10-21T14:23:45.540Z,4.22
2018-10-21T14:26:14.776Z,4.28
2018-10-21T14:28:44.003Z,3.67
2018-10-21T14:31:13.339Z,4.37
2018-10-21T14:33:42.555Z,4.30
2018-10-21T14:36:11.885Z,4.00
2018-10-21T14:38:41.050Z,4.10
2018-10-21T14:41:10.373Z,3.43
2018-10-21T14:43:39.600Z,3.93
2018-10-21T14:46:09.323Z,3.90
2018-10-21T14:48:38.528Z,3.47
2018-10-21T14:51:08.175Z,3.87
2018-10-21T14:53:37.361Z,3.40
2018-10-21T14:56:06.888Z,3.50
2018-10-21T14:58:36.613Z,4.42
2018-10-21T15:01:05.915Z,3.80
2018-10-21T15:03:35.745Z,3.87
2018-10-21T15:06:04.964Z,3.33
2018-10-21T15:08:34.183Z,3.33
2018-10-21T15:11:03.695Z,4.10
2018-10-21T15:13:32.951Z,4.03
2018-10-21T15:16:02.206Z,4.40
2018-10-21T15:18:31.473Z,4.97
2018-10-21T15:21:00.679Z,3.70
2018-10-21T15:23:29.967Z,3.80
2018-10-21T15:25:59.198Z,3.50
2018-10-21T15:28:28.427Z,4.47
2018-10-21T15:30:57.682Z,3.80
2018-10-21T15:33:27.380Z,3.60
2018-10-21T15:35:56.636Z,3.43
2018-10-21T15:38:25.946Z,3.93
2018-10-21T15:40:55.161Z,3.77
2018-10-21T15:43:24.385Z,3.70
2018-10-21T15:45:53.747Z,3.50
2018-10-21T15:48:22.925Z,3.47
2018-10-21T15:50:52.148Z,3.37
2018-10-21T15:53:21.423Z,3.70
2018-10-21T15:55:50.692Z,4.40
2018-10-21T15:58:19.985Z,4.93
2018-10-21T16:00:49.228Z,3.70
2018-10-21T16:03:18.430Z,4.20
2018-10-21T16:05:47.736Z,7.33
2018-10-21T16:08:17.040Z,4.07
2018-10-21T16:10:46.242Z,4.27
2018-10-21T16:13:15.466Z,4.17
2018-10-21T16:15:44.789Z,3.80
2018-10-21T16:18:13.987Z,3.77
2018-10-21T16:20:43.240Z,3.53
2018-10-21T16:23:12.790Z,3.87
2018-10-21T16:25:42.167Z,3.40
2018-10-21T16:28:11.315Z,3.50
2018-10-21T16:30:41.202Z,4.00
2018-10-21T16:33:10.689Z,3.70
2018-10-21T16:35:39.946Z,6.23
2018-10-21T16:38:09.435Z,5.40
2018-10-21T16:40:38.680Z,4.23
2018-10-21T16:43:07.905Z,4.13
2018-10-21T16:45:37.163Z,4.20
2018-10-21T16:48:06.431Z,4.23
2018-10-21T16:50:37.739Z,4.17
2018-10-21T16:53:04.873Z,4.33
2018-10-21T16:55:34.096Z,4.83
2018-10-21T16:58:03.347Z,4.60
2018-10-21T17:00:32.695Z,4.87
2018-10-21T17:03:01.937Z,4.77
2018-10-21T17:05:31.145Z,3.80
2018-10-21T17:08:00.392Z,4.47
2018-10-21T17:10:29.886Z,4.60
2018-10-21T17:12:58.917Z,4.60
2018-10-21T17:15:28.179Z,4.27
2018-10-21T17:17:57.409Z,5.83
2018-10-21T17:20:26.700Z,5.20
2018-10-21T17:22:55.896Z,6.50
2018-10-21T17:25:25.133Z,7.00
2018-10-21T17:27:54.461Z,7.17
2018-10-21T17:30:24.662Z,5.90
2018-10-21T17:32:53.914Z,6.30
2018-10-21T17:35:23.144Z,6.63
2018-10-21T17:37:52.735Z,7.30
2018-10-21T17:40:21.996Z,7.37
2018-10-21T17:42:51.306Z,7.80
2018-10-21T17:45:21.149Z,9.13
2018-10-21T17:47:50.572Z,8.10
2018-10-21T17:50:20.215Z,8.43
2018-10-21T17:52:49.476Z,8.90
2018-10-21T17:55:19.311Z,9.17
2018-10-21T17:57:48.445Z,9.73
2018-10-21T18:00:19.212Z,10.70
2018-10-21T18:02:48.459Z,10.13
2018-10-21T18:05:19.075Z,8.33
2018-10-21T18:07:48.429Z,8.27
2018-10-21T18:10:19.764Z,8.67
2018-10-21T18:12:49.138Z,7.90
2018-10-21T18:15:19.240Z,7.83
2018-10-21T18:17:48.519Z,7.80
2018-10-21T18:20:19.121Z,6.17
2018-10-21T18:22:48.422Z,8.30
2018-10-21T18:25:18.651Z,7.20
2018-10-21T18:27:47.821Z,7.50
2018-10-21T18:30:20.174Z,7.07
2018-10-21T18:32:49.946Z,7.40
2018-10-21T18:35:19.624Z,7.37
2018-10-21T18:37:49.238Z,7.27
2018-10-21T18:40:19.497Z,6.30
2018-10-21T18:42:48.655Z,6.27
2018-10-21T18:45:18.540Z,7.37
2018-10-21T18:47:47.775Z,7.47
2018-10-21T18:50:17.863Z,7.80
2018-10-21T18:52:47.083Z,8.13
2018-10-21T18:55:17.338Z,8.17
2018-10-21T18:57:46.612Z,7.70
2018-10-21T19:00:18.500Z,7.80
2018-10-21T19:02:47.722Z,7.60
2018-10-21T19:05:18.456Z,7.50
2018-10-21T19:07:47.643Z,7.40
2018-10-21T19:10:17.621Z,7.30
2018-10-21T19:12:59.569Z,7.20
2018-10-21T19:15:16.671Z,6.87
2018-10-21T19:17:45.872Z,7.60
2018-10-21T19:20:17.116Z,7.90
2018-10-21T19:22:46.784Z,8.23
2018-10-21T19:25:18.186Z,8.63
2018-10-21T19:27:47.468Z,8.43
2018-10-21T19:30:17.408Z,8.65
2018-10-21T19:32:46.668Z,8.47
2018-10-21T19:35:18.016Z,8.47
2018-10-21T19:37:47.220Z,8.60
2018-10-21T19:40:17.434Z,8.28
2018-10-21T19:42:46.549Z,9.10
2018-10-21T19:45:17.000Z,9.20
2018-10-21T19:47:46.236Z,8.87
2018-10-21T19:50:17.800Z,8.20
2018-10-21T19:52:48.467Z,8.30
2018-10-21T19:55:18.231Z,8.63
2018-10-21T19:57:47.460Z,8.30
2018-10-21T20:00:17.713Z,8.37
2018-10-21T20:02:47.080Z,8.53
2018-10-21T20:05:18.035Z,8.65
2018-10-21T20:07:47.235Z,9.87
2018-10-21T20:10:17.084Z,9.30
2018-10-21T20:12:46.341Z,9.90
2018-10-21T20:15:16.041Z,9.20
2018-10-21T20:17:45.390Z,10.40
2018-10-21T20:20:14.881Z,11.73
2018-10-21T20:22:44.055Z,11.93
2018-10-21T20:25:13.315Z,9.48
2018-10-21T20:27:42.517Z,10.10
2018-10-21T20:30:12.796Z,11.13
2018-10-21T20:32:42.312Z,10.00
2018-10-21T20:35:12.087Z,10.40
2018-10-21T20:37:41.362Z,10.97
2018-10-21T20:40:11.277Z,11.27
2018-10-21T20:42:40.462Z,12.33
2018-10-21T20:45:10.824Z,11.40
2018-10-21T20:47:40.012Z,11.43
2018-10-21T20:50:09.243Z,11.30
2018-10-21T20:52:38.551Z,10.37
2018-10-21T20:55:07.884Z,10.40
2018-10-21T20:57:37.143Z,10.60
2018-10-21T21:00:06.479Z,10.00
2018-10-21T21:02:35.759Z,10.03
2018-10-21T21:05:05.775Z,11.00
2018-10-21T21:07:34.965Z,9.00
2018-10-21T21:10:04.808Z,9.90
2018-10-21T21:12:33.948Z,11.03
2018-10-21T21:15:03.211Z,10.57
2018-10-21T21:17:32.467Z,10.10
2018-10-21T21:20:01.749Z,11.30
2018-10-21T21:22:30.955Z,10.17
2018-10-21T21:25:00.168Z,10.80
2018-10-21T21:27:29.371Z,10.77
2018-10-21T21:29:58.645Z,11.07
2018-10-21T21:32:27.929Z,9.27
2018-10-21T21:34:57.201Z,11.17
2018-10-21T21:37:26.445Z,10.80
2018-10-21T21:39:55.743Z,10.33
2018-10-21T21:42:24.929Z,10.70
2018-10-21T21:44:54.121Z,10.50
2018-10-21T21:47:23.397Z,10.27
2018-10-21T21:49:52.643Z,10.60
2018-10-21T21:52:21.937Z,9.50
2018-10-21T21:54:51.199Z,9.50
2018-10-21T21:57:20.478Z,10.90
2018-10-21T21:59:49.655Z,8.80
2018-10-21T22:02:19.037Z,9.40
2018-10-21T22:04:48.309Z,9.73
2018-10-21T22:07:18.105Z,9.77
2018-10-21T22:09:47.412Z,10.10
2018-10-21T22:12:16.697Z,8.90
2018-10-21T22:14:45.856Z,8.67
2018-10-21T22:17:15.495Z,8.00
2018-10-21T22:19:44.651Z,9.70
2018-10-21T22:22:14.679Z,9.23
2018-10-21T22:24:43.856Z,8.80
2018-10-21T22:27:13.231Z,8.75
2018-10-21T22:29:42.662Z,9.50
2018-10-21T22:32:11.836Z,10.00
2018-10-21T22:34:41.148Z,8.93
2018-10-21T22:37:10.353Z,8.43
2018-10-21T22:39:39.809Z,8.78
2018-10-21T22:42:10.079Z,9.17
2018-10-21T22:44:39.214Z,7.93
2018-10-21T22:47:08.385Z,9.23
2018-10-21T22:49:37.589Z,9.00
2018-10-21T22:52:06.941Z,9.37
2018-10-21T22:54:36.150Z,8.63
2018-10-21T22:57:09.753Z,9.43
2018-10-21T22:59:38.942Z,8.70
2018-10-21T23:02:08.198Z,9.13
2018-10-21T23:04:37.468Z,9.73
2018-10-21T23:07:06.686Z,9.33
2018-10-21T23:19:21.213Z,9.30
2018-10-21T23:21:50.415Z,9.40
2018-10-21T23:24:19.684Z,9.43
2018-10-21T23:26:48.808Z,8.83
2018-10-21T23:29:18.069Z,9.67
2018-10-21T23:31:47.259Z,9.35
2018-10-21T23:34:17.066Z,8.80
2018-10-21T23:36:46.180Z,8.90
2018-10-21T23:39:15.912Z,8.53
2018-10-21T23:41:45.115Z,8.50
2018-10-21T23:44:14.870Z,7.67
2018-10-21T23:46:44.068Z,8.40
2018-10-21T23:49:14.048Z,8.47
2018-10-21T23:51:43.300Z,8.70
2018-10-21T23:54:13.224Z,8.50
2018-10-21T23:56:42.318Z,8.87
2018-10-21T23:59:12.138Z,8.67
